Terminal Aerodrome Forecast
Issued by NWS

Home | Current Version | Previous Version | Text Only | Print | Product List | Glossary On
Versions: 1 2 3 4 5 6 7 8 9 10 11 12
876
FTUS45 KVEF 141140
TAFHND
TAF
KHND 141140Z 1412/1512 36012KT P6SM SKC
     FM141600 02012G20KT P6SM FEW250
     FM142300 02010KT P6SM SCT250
     FM150300 08006KT P6SM SCT250=

USA.gov is the U.S. government's official web portal to all federal, state and local government web resources and services.